createdAt,value
2018-08-12T00:00:16.901Z,57.21
2018-08-12T00:02:44.707Z,58.20
2018-08-12T00:05:12.292Z,58.22
2018-08-12T00:07:39.841Z,58.08
2018-08-12T00:10:07.974Z,58.40
2018-08-12T00:12:35.537Z,57.82
2018-08-12T00:15:03.147Z,57.54
2018-08-12T00:17:30.697Z,58.37
2018-08-12T00:19:58.231Z,59.00
2018-08-12T00:22:25.899Z,58.24
2018-08-12T00:24:53.512Z,58.69
2018-08-12T00:27:21.095Z,57.94
2018-08-12T00:29:48.995Z,58.81
2018-08-12T00:32:16.528Z,58.94
2018-08-12T00:34:44.071Z,59.74
2018-08-12T00:37:11.614Z,59.54
2018-08-12T00:39:39.142Z,58.72
2018-08-12T00:42:06.727Z,58.95
2018-08-12T00:44:34.319Z,58.85
2018-08-12T00:47:01.867Z,58.65
2018-08-12T00:49:29.454Z,59.11
2018-08-12T00:51:57.006Z,59.23
2018-08-12T00:54:24.895Z,59.58
2018-08-12T00:56:52.495Z,59.25
2018-08-12T00:59:19.995Z,59.05
2018-08-12T01:01:47.575Z,58.81
2018-08-12T01:04:15.159Z,59.70
2018-08-12T01:06:43.439Z,58.89
2018-08-12T01:09:12.543Z,59.09
2018-08-12T01:11:41.427Z,59.36
2018-08-12T01:14:09.042Z,59.04
2018-08-12T01:16:36.615Z,58.81
2018-08-12T01:19:04.335Z,58.79
2018-08-12T01:21:31.849Z,58.99
2018-08-12T01:23:59.417Z,59.13
2018-08-12T01:26:26.998Z,58.72
2018-08-12T01:28:54.553Z,59.33
2018-08-12T01:31:22.192Z,59.66
2018-08-12T01:33:49.755Z,59.69
2018-08-12T01:36:17.315Z,60.07
2018-08-12T01:38:44.873Z,60.09
2018-08-12T01:41:12.402Z,59.53
2018-08-12T01:43:39.938Z,60.25
2018-08-12T01:46:07.490Z,60.21
2018-08-12T01:48:35.052Z,59.86
2018-08-12T01:51:02.598Z,59.83
2018-08-12T01:53:30.485Z,59.98
2018-08-12T01:55:58.077Z,60.37
2018-08-12T01:58:25.638Z,59.58
2018-08-12T02:00:53.203Z,59.74
2018-08-12T02:03:20.763Z,60.08
2018-08-12T02:05:48.313Z,60.05
2018-08-12T02:08:16.121Z,60.08
2018-08-12T02:10:43.660Z,59.68
2018-08-12T02:13:11.190Z,59.80
2018-08-12T02:15:38.747Z,59.45
2018-08-12T02:18:06.289Z,59.62
2018-08-12T02:20:33.802Z,60.61
2018-08-12T02:23:01.399Z,60.00
2018-08-12T02:25:28.967Z,60.41
2018-08-12T02:27:56.512Z,60.57
2018-08-12T02:30:24.043Z,61.07
2018-08-12T02:32:52.151Z,61.31
2018-08-12T02:35:19.791Z,61.16
2018-08-12T02:37:47.325Z,61.06
2018-08-12T02:40:14.871Z,61.52
2018-08-12T02:42:42.391Z,61.96
2018-08-12T02:45:12.093Z,61.90
2018-08-12T02:47:39.623Z,61.93
2018-08-12T02:50:07.165Z,61.34
2018-08-12T02:52:35.381Z,61.40
2018-08-12T02:55:02.978Z,61.22
2018-08-12T02:57:30.531Z,61.67
2018-08-12T02:59:58.098Z,61.04
2018-08-12T03:02:25.645Z,60.92
2018-08-12T03:04:53.173Z,60.62
2018-08-12T03:07:20.723Z,61.14
2018-08-12T03:09:48.251Z,61.28
2018-08-12T03:12:15.838Z,61.48
2018-08-12T03:14:43.417Z,61.94
2018-08-12T03:17:10.995Z,62.25
2018-08-12T03:19:38.528Z,61.83
2018-08-12T03:22:06.089Z,61.72
2018-08-12T03:24:33.626Z,61.77
2018-08-12T03:27:01.154Z,62.12
2018-08-12T03:29:28.707Z,61.76
2018-08-12T03:31:56.227Z,61.74
2018-08-12T03:34:23.755Z,61.51
2018-08-12T03:36:51.671Z,61.39
2018-08-12T03:39:19.187Z,61.47
2018-08-12T03:41:46.741Z,61.56
2018-08-12T03:44:14.277Z,61.69
2018-08-12T03:46:41.810Z,62.15
2018-08-12T03:49:09.355Z,62.21
2018-08-12T03:51:36.922Z,61.93
2018-08-12T03:54:04.498Z,61.99
2018-08-12T03:56:32.042Z,61.81
2018-08-12T03:58:59.561Z,62.38
2018-08-12T04:01:27.086Z,62.40
2018-08-12T04:03:54.655Z,62.59
2018-08-12T04:06:22.178Z,62.73
2018-08-12T04:08:49.713Z,62.47
2018-08-12T04:11:17.590Z,62.47
2018-08-12T04:13:45.156Z,62.60
2018-08-12T04:16:12.725Z,62.32
2018-08-12T04:18:40.295Z,62.53
2018-08-12T04:21:07.867Z,62.92
2018-08-12T04:23:35.430Z,62.20
2018-08-12T04:26:03.070Z,62.90
2018-08-12T04:28:30.585Z,62.68
2018-08-12T04:30:58.138Z,62.73
2018-08-12T04:33:25.682Z,62.73
2018-08-12T04:35:53.209Z,62.38
2018-08-12T04:38:20.747Z,62.33
2018-08-12T04:40:48.334Z,61.80
2018-08-12T04:43:16.059Z,61.88
2018-08-12T04:45:43.625Z,61.33
2018-08-12T04:48:11.135Z,60.84
2018-08-12T04:50:38.670Z,60.72
2018-08-12T04:53:06.450Z,60.14
2018-08-12T04:55:34.015Z,60.33
2018-08-12T04:58:01.525Z,59.79
2018-08-12T05:00:29.062Z,59.32
2018-08-12T05:02:56.645Z,58.44
2018-08-12T05:05:24.222Z,57.87
2018-08-12T05:07:51.751Z,57.30
2018-08-12T05:10:19.454Z,56.66
2018-08-12T05:12:46.983Z,56.35
2018-08-12T05:15:14.494Z,56.05
2018-08-12T05:17:42.090Z,56.04
2018-08-12T05:20:09.822Z,55.69
2018-08-12T05:22:37.699Z,55.06
2018-08-12T05:25:05.573Z,54.76
2018-08-12T05:27:33.235Z,54.46
2018-08-12T05:30:01.119Z,54.34
2018-08-12T05:32:28.654Z,54.07
2018-08-12T05:34:56.219Z,53.65
2018-08-12T05:37:24.102Z,53.11
2018-08-12T05:39:51.656Z,52.77
2018-08-12T05:42:19.174Z,52.04
2018-08-12T05:44:46.798Z,51.28
2018-08-12T05:47:14.510Z,50.26
2018-08-12T05:49:42.082Z,50.59
2018-08-12T05:52:09.878Z,50.08
2018-08-12T05:54:37.422Z,49.34
2018-08-12T05:57:05.014Z,49.16
2018-08-12T05:59:32.597Z,48.86
2018-08-12T06:02:00.149Z,47.46
2018-08-12T06:04:28.070Z,46.57
2018-08-12T06:06:55.593Z,45.08
2018-08-12T06:09:23.131Z,43.52
2018-08-12T06:11:50.720Z,42.29
2018-08-12T06:14:18.261Z,42.77
2018-08-12T06:16:45.820Z,41.93
2018-08-12T06:19:13.382Z,41.10
2018-08-12T06:21:40.911Z,39.89
2018-08-12T06:24:08.439Z,40.17
2018-08-12T06:26:36.006Z,39.06
2018-08-12T06:29:03.574Z,38.93
2018-08-12T06:31:31.225Z,39.20
2018-08-12T06:33:58.694Z,39.47
2018-08-12T06:36:26.307Z,39.21
2018-08-12T06:38:53.878Z,38.51
2018-08-12T06:41:21.417Z,38.94
2018-08-12T06:43:48.953Z,38.54
2018-08-12T06:46:16.501Z,38.21
2018-08-12T06:48:44.133Z,37.34
2018-08-12T06:51:11.807Z,36.77
2018-08-12T06:53:39.382Z,36.67
2018-08-12T06:56:07.329Z,37.16
2018-08-12T06:58:34.913Z,36.61
2018-08-12T07:01:02.508Z,35.61
2018-08-12T07:03:30.058Z,34.99
2018-08-12T07:05:57.642Z,34.27
2018-08-12T07:08:25.223Z,34.77
2018-08-12T07:10:52.778Z,32.45
2018-08-12T07:13:20.370Z,31.22
2018-08-12T07:15:47.918Z,29.47
2018-08-12T07:18:15.447Z,28.63
2018-08-12T07:20:43.017Z,28.42
2018-08-12T07:23:10.555Z,27.14
2018-08-12T07:25:38.061Z,25.84
2018-08-12T07:28:05.626Z,25.86
2018-08-12T07:30:33.178Z,26.53
2018-08-12T07:33:00.791Z,24.86
2018-08-12T07:35:28.378Z,25.52
2018-08-12T07:37:55.965Z,26.53
2018-08-12T07:40:23.534Z,25.83
2018-08-12T07:42:51.207Z,24.78
2018-08-12T07:45:18.848Z,25.15
2018-08-12T07:47:46.401Z,25.92
2018-08-12T07:50:13.962Z,25.12
2018-08-12T07:52:42.922Z,24.10
2018-08-12T07:55:11.454Z,22.84
2018-08-12T07:57:39.242Z,22.40
2018-08-12T08:00:08.273Z,21.90
2018-08-12T08:02:35.806Z,21.66
2018-08-12T08:05:03.928Z,20.48
2018-08-12T08:07:31.504Z,20.36
2018-08-12T08:09:59.071Z,19.44
2018-08-12T08:12:26.672Z,19.33
2018-08-12T08:14:54.214Z,19.23
2018-08-12T08:17:21.989Z,19.26
2018-08-12T08:19:49.582Z,19.29
2018-08-12T08:22:17.114Z,19.54
2018-08-12T08:24:45.303Z,19.92
2018-08-12T08:27:12.839Z,18.67
2018-08-12T08:29:40.454Z,19.59
2018-08-12T08:32:08.155Z,18.91
2018-08-12T08:34:35.670Z,18.83
2018-08-12T08:37:03.277Z,17.88
2018-08-12T08:39:30.882Z,17.00
2018-08-12T08:41:58.482Z,17.26
2018-08-12T08:44:26.026Z,17.17
2018-08-12T08:46:53.630Z,16.18
2018-08-12T08:49:21.187Z,15.67
2018-08-12T08:51:48.735Z,15.22
2018-08-12T08:54:16.605Z,14.65
2018-08-12T08:56:44.705Z,14.56
2018-08-12T08:59:12.955Z,15.35
2018-08-12T09:01:40.777Z,15.14
2018-08-12T09:04:08.373Z,15.47
2018-08-12T09:06:35.930Z,15.23
2018-08-12T09:09:06.543Z,15.18
2018-08-12T09:11:34.926Z,14.76
2018-08-12T09:14:03.397Z,14.67
2018-08-12T09:16:30.981Z,14.79
2018-08-12T09:18:58.554Z,14.67
2018-08-12T09:21:27.847Z,13.83
2018-08-12T09:23:55.424Z,14.36
2018-08-12T09:26:22.977Z,12.92
2018-08-12T09:28:50.550Z,13.46
2018-08-12T09:31:18.092Z,13.46
2018-08-12T09:33:45.615Z,13.21
2018-08-12T09:36:13.183Z,13.19
2018-08-12T09:38:40.755Z,12.51
2018-08-12T09:41:08.627Z,12.71
2018-08-12T09:43:36.135Z,12.64
2018-08-12T09:46:03.723Z,13.07
2018-08-12T09:48:31.307Z,12.61
2018-08-12T09:50:59.503Z,12.82
2018-08-12T09:53:27.061Z,13.37
2018-08-12T09:55:54.628Z,12.53
2018-08-12T09:58:22.240Z,13.19
2018-08-12T10:00:49.803Z,11.94
2018-08-12T10:03:17.328Z,12.58
2018-08-12T10:05:44.930Z,12.60
2018-08-12T10:08:12.466Z,12.50
2018-08-12T10:10:40.060Z,12.79
2018-08-12T10:13:07.730Z,12.69
2018-08-12T10:15:35.421Z,13.37
2018-08-12T10:18:04.082Z,13.01
2018-08-12T10:20:31.713Z,13.37
2018-08-12T10:23:00.166Z,13.49
2018-08-12T10:25:27.733Z,13.46
2018-08-12T10:27:55.265Z,13.22
2018-08-12T10:30:22.814Z,12.51
2018-08-12T10:32:51.124Z,13.16
2018-08-12T10:35:18.742Z,12.79
2018-08-12T10:37:46.415Z,12.66
2018-08-12T10:40:15.251Z,13.27
2018-08-12T10:42:43.338Z,12.49
2018-08-12T10:45:11.695Z,11.02
2018-08-12T10:47:40.078Z,11.18
2018-08-12T10:50:09.977Z,11.37
2018-08-12T10:52:37.948Z,11.67
2018-08-12T10:55:06.010Z,12.05
2018-08-12T10:57:33.810Z,11.29
2018-08-12T11:00:01.629Z,12.15
2018-08-12T11:02:29.281Z,12.49
2018-08-12T11:04:56.944Z,11.67
2018-08-12T11:07:24.635Z,11.94
2018-08-12T11:09:52.278Z,12.43
2018-08-12T11:12:19.909Z,13.31
2018-08-12T11:14:47.443Z,12.73
2018-08-12T11:17:15.054Z,14.03
2018-08-12T11:19:42.661Z,14.08
2018-08-12T11:22:10.208Z,15.13
2018-08-12T11:24:37.807Z,15.23
2018-08-12T11:27:05.522Z,16.32
2018-08-12T11:29:33.104Z,15.22
2018-08-12T11:32:00.718Z,15.65
2018-08-12T11:34:28.258Z,16.31
2018-08-12T11:36:55.817Z,16.25
2018-08-12T11:39:23.398Z,16.08
2018-08-12T11:41:50.971Z,17.06
2018-08-12T11:44:18.515Z,17.17
2018-08-12T11:46:46.072Z,17.13
2018-08-12T11:49:13.642Z,18.19
2018-08-12T11:51:42.282Z,17.93
2018-08-12T11:54:09.808Z,18.09
2018-08-12T11:56:37.359Z,17.69
2018-08-12T11:59:04.939Z,18.98
2018-08-12T12:01:32.507Z,17.40
2018-08-12T12:04:00.110Z,17.38
2018-08-12T12:06:27.630Z,19.15
2018-08-12T12:08:56.174Z,18.28
2018-08-12T12:11:23.805Z,18.20
2018-08-12T12:13:51.354Z,19.24
2018-08-12T12:16:18.903Z,19.44
2018-08-12T12:18:46.447Z,19.21
2018-08-12T12:21:14.030Z,18.85
2018-08-12T12:23:41.751Z,19.54
2018-08-12T12:26:09.337Z,18.95
2018-08-12T12:28:36.857Z,17.71
2018-08-12T12:31:04.490Z,18.99
2018-08-12T12:33:32.737Z,19.53
2018-08-12T12:36:00.325Z,18.68
2018-08-12T12:38:27.873Z,19.06
2018-08-12T12:40:55.450Z,19.48
2018-08-12T12:43:23.090Z,18.67
2018-08-12T12:45:50.668Z,17.60
2018-08-12T12:48:18.577Z,17.96
2018-08-12T12:50:46.179Z,18.61
2018-08-12T12:53:13.766Z,18.39
2018-08-12T12:55:41.314Z,18.86
2018-08-12T12:58:08.914Z,19.61
2018-08-12T13:00:36.782Z,18.80
2018-08-12T13:03:04.413Z,19.33
2018-08-12T13:05:32.008Z,18.81
2018-08-12T13:07:59.591Z,19.31
2018-08-12T13:10:27.145Z,19.10
2018-08-12T13:12:54.766Z,19.01
2018-08-12T13:15:22.354Z,19.63
2018-08-12T13:17:49.947Z,19.07
2018-08-12T13:20:18.700Z,20.01
2018-08-12T13:22:47.164Z,19.55
2018-08-12T13:25:16.272Z,19.86
2018-08-12T13:27:44.222Z,20.78
2018-08-12T13:30:12.793Z,20.39
2018-08-12T13:32:41.396Z,20.02
2018-08-12T13:35:08.987Z,20.18
2018-08-12T13:37:36.893Z,20.88
2018-08-12T13:40:05.209Z,20.26
2018-08-12T13:42:32.796Z,20.14
2018-08-12T13:45:00.361Z,21.01
2018-08-12T13:47:27.999Z,20.84
2018-08-12T13:49:55.580Z,20.75
2018-08-12T13:52:23.122Z,21.22
2018-08-12T13:54:50.813Z,21.03
2018-08-12T13:57:18.422Z,21.35
2018-08-12T13:59:46.138Z,21.67
2018-08-12T14:02:13.711Z,21.03
2018-08-12T14:04:41.245Z,21.12
2018-08-12T14:07:09.146Z,21.97
2018-08-12T14:09:36.678Z,21.61
2018-08-12T14:12:04.255Z,21.40
2018-08-12T14:14:31.836Z,20.68
2018-08-12T14:16:59.434Z,20.77
2018-08-12T14:19:26.992Z,21.20
2018-08-12T14:21:54.539Z,20.85
2018-08-12T14:24:22.067Z,21.34
2018-08-12T14:26:49.903Z,20.58
2018-08-12T14:29:17.527Z,19.74
2018-08-12T14:31:45.205Z,19.78
2018-08-12T14:34:12.798Z,19.82
2018-08-12T14:36:40.346Z,20.51
2018-08-12T14:39:08.236Z,20.68
2018-08-12T14:41:35.857Z,20.99
2018-08-12T14:44:03.524Z,20.20
2018-08-12T14:46:31.113Z,20.86
2018-08-12T14:48:58.684Z,18.68
2018-08-12T14:51:26.239Z,19.83
2018-08-12T14:53:53.797Z,19.69
2018-08-12T14:56:21.347Z,20.15
2018-08-12T14:58:48.981Z,18.66
2018-08-12T15:01:16.571Z,19.40
2018-08-12T15:03:44.117Z,19.37
2018-08-12T15:06:12.298Z,20.54
2018-08-12T15:08:39.825Z,21.11
2018-08-12T15:11:07.470Z,22.18
2018-08-12T15:13:35.942Z,22.33
2018-08-12T15:16:03.510Z,22.47
2018-08-12T15:18:31.113Z,23.47
2018-08-12T15:20:58.702Z,22.99
2018-08-12T15:23:26.675Z,22.93
2018-08-12T15:25:54.211Z,22.49
2018-08-12T15:28:21.734Z,22.89
2018-08-12T15:30:49.295Z,22.75
2018-08-12T15:33:16.866Z,23.36
2018-08-12T15:35:44.458Z,21.52
2018-08-12T15:38:12.031Z,21.06
2018-08-12T15:40:39.611Z,22.33
2018-08-12T15:43:07.162Z,22.31
2018-08-12T15:45:34.747Z,21.61
2018-08-12T15:48:02.353Z,20.72
2018-08-12T15:50:29.887Z,21.28
2018-08-12T15:52:57.413Z,21.18
2018-08-12T15:55:25.150Z,21.60
2018-08-12T15:57:52.736Z,20.66
2018-08-12T16:00:21.510Z,19.50
2018-08-12T16:02:49.170Z,20.39
2018-08-12T16:05:16.806Z,20.32
2018-08-12T16:07:45.482Z,20.09
2018-08-12T16:10:16.121Z,20.55
2018-08-12T16:12:44.081Z,19.76
2018-08-12T16:15:12.360Z,20.23
2018-08-12T16:17:40.688Z,20.66
2018-08-12T16:20:08.952Z,20.12
2018-08-12T16:22:36.998Z,20.08
2018-08-12T16:25:05.616Z,20.60
2018-08-12T16:27:33.206Z,20.05
2018-08-12T16:30:00.914Z,20.18
2018-08-12T16:32:28.453Z,20.18
2018-08-12T16:34:56.096Z,20.42
2018-08-12T16:37:23.699Z,20.44
2018-08-12T16:39:51.261Z,19.87
2018-08-12T16:42:18.794Z,19.94
2018-08-12T16:44:46.333Z,20.59
2018-08-12T16:47:13.984Z,20.45
2018-08-12T16:49:41.544Z,19.95
2018-08-12T16:52:09.122Z,20.72
2018-08-12T16:54:36.837Z,20.23
2018-08-12T16:57:04.650Z,20.36
2018-08-12T16:59:32.223Z,20.94
2018-08-12T17:01:59.792Z,20.83
2018-08-12T17:04:27.533Z,20.09
2018-08-12T17:06:55.103Z,20.53
2018-08-12T17:09:22.572Z,21.36
2018-08-12T17:11:50.202Z,21.05
2018-08-12T17:14:17.774Z,20.39
2018-08-12T17:16:45.310Z,21.76
2018-08-12T17:19:13.213Z,21.06
2018-08-12T17:21:40.810Z,21.15
2018-08-12T17:24:08.914Z,21.93
2018-08-12T17:26:36.529Z,22.63
2018-08-12T17:29:04.215Z,21.92
2018-08-12T17:31:31.781Z,22.14
2018-08-12T17:33:59.381Z,22.63
2018-08-12T17:36:27.536Z,22.50
2018-08-12T17:38:55.143Z,22.88
2018-08-12T17:41:22.736Z,23.25
2018-08-12T17:43:50.637Z,23.65
2018-08-12T17:46:18.206Z,23.92
2018-08-12T17:48:45.805Z,23.41
2018-08-12T17:51:13.373Z,24.51
2018-08-12T17:53:40.925Z,23.95
2018-08-12T17:56:08.549Z,24.72
2018-08-12T17:58:36.112Z,24.51
2018-08-12T18:01:03.693Z,24.83
2018-08-12T18:03:31.581Z,25.11
2018-08-12T18:05:59.131Z,25.49
2018-08-12T18:08:26.721Z,25.55
2018-08-12T18:10:54.488Z,26.26
2018-08-12T18:13:22.978Z,25.73
2018-08-12T18:15:50.558Z,25.38
2018-08-12T18:18:18.121Z,24.91
2018-08-12T18:20:45.681Z,25.87
2018-08-12T18:23:13.291Z,25.27
2018-08-12T18:25:40.901Z,25.75
2018-08-12T18:28:08.742Z,26.18
2018-08-12T18:30:36.319Z,25.67
2018-08-12T18:33:03.944Z,25.54
2018-08-12T18:35:31.506Z,25.54
2018-08-12T18:37:59.065Z,25.60
2018-08-12T18:40:26.652Z,26.79
2018-08-12T18:42:54.236Z,27.13
2018-08-12T18:45:21.841Z,29.17
2018-08-12T18:47:49.413Z,29.69
2018-08-12T18:50:17.023Z,30.57
2018-08-12T18:52:44.612Z,28.15
2018-08-12T18:55:12.795Z,28.80
2018-08-12T18:57:40.366Z,29.02
2018-08-12T19:00:08.858Z,29.15
2018-08-12T19:02:36.738Z,29.36
2018-08-12T19:05:04.600Z,30.04
2018-08-12T19:07:32.148Z,30.16
2018-08-12T19:09:59.708Z,30.37
2018-08-12T19:12:27.306Z,31.12
2018-08-12T19:14:54.875Z,31.04
2018-08-12T19:17:22.458Z,31.18
2018-08-12T19:19:50.018Z,31.47
2018-08-12T19:22:17.666Z,31.92
2018-08-12T19:24:45.262Z,32.24
2018-08-12T19:27:12.865Z,31.89
2018-08-12T19:29:40.474Z,32.26
2018-08-12T19:32:08.133Z,32.38
2018-08-12T19:34:35.844Z,32.46
2018-08-12T19:37:03.465Z,32.34
2018-08-12T19:39:31.046Z,32.58
2018-08-12T19:41:58.630Z,33.10
2018-08-12T19:44:26.285Z,32.96
2018-08-12T19:46:53.914Z,33.58
2018-08-12T19:49:21.379Z,33.83
2018-08-12T19:51:49.010Z,34.44
2018-08-12T19:54:16.547Z,34.29
2018-08-12T19:56:44.089Z,34.49
2018-08-12T19:59:11.697Z,34.57
2018-08-12T20:01:39.303Z,35.08
2018-08-12T20:04:06.899Z,35.69
2018-08-12T20:06:34.755Z,35.71
2018-08-12T20:09:02.559Z,35.89
2018-08-12T20:11:30.142Z,35.69
2018-08-12T20:13:57.959Z,35.95
2018-08-12T20:16:25.529Z,35.77
2018-08-12T20:18:53.182Z,36.10
2018-08-12T20:21:20.931Z,35.87
2018-08-12T20:23:48.480Z,36.32
2018-08-12T20:26:16.070Z,36.39
2018-08-12T20:28:43.606Z,36.84
2018-08-12T20:31:11.175Z,36.85
2018-08-12T20:33:38.722Z,36.44
2018-08-12T20:36:06.447Z,36.64
2018-08-12T20:38:33.999Z,36.75
2018-08-12T20:41:01.567Z,36.63
2018-08-12T20:43:30.755Z,37.15
2018-08-12T20:45:58.290Z,37.48
2018-08-12T20:48:25.946Z,37.74
2018-08-12T20:50:53.539Z,37.48
2018-08-12T20:53:21.110Z,38.14
2018-08-12T20:55:48.685Z,37.97
2018-08-12T20:58:16.246Z,37.90
2018-08-12T21:00:44.060Z,37.67
2018-08-12T21:03:11.603Z,38.02
2018-08-12T21:05:39.172Z,38.28
2018-08-12T21:08:06.986Z,38.60
2018-08-12T21:10:34.534Z,38.37
2018-08-12T21:13:02.082Z,38.12
2018-08-12T21:15:29.640Z,38.29
2018-08-12T21:17:57.227Z,38.50
2018-08-12T21:20:24.835Z,38.02
2018-08-12T21:22:52.397Z,38.02
2018-08-12T21:25:20.000Z,38.59
2018-08-12T21:27:47.593Z,38.18
2018-08-12T21:30:15.230Z,38.29
2018-08-12T21:32:42.827Z,38.78
2018-08-12T21:35:10.401Z,38.32
2018-08-12T21:37:37.983Z,38.27
2018-08-12T21:40:05.590Z,38.28
2018-08-12T21:42:33.157Z,39.05
2018-08-12T21:45:00.772Z,38.59
2018-08-12T21:47:28.311Z,38.77
2018-08-12T21:49:55.819Z,39.12
2018-08-12T21:52:23.431Z,39.57
2018-08-12T21:54:51.018Z,39.37
2018-08-12T21:57:18.603Z,39.35
2018-08-12T21:59:46.183Z,39.92
2018-08-12T22:02:13.770Z,39.71
2018-08-12T22:04:41.310Z,40.28
2018-08-12T22:07:08.950Z,39.80
2018-08-12T22:09:36.530Z,40.49
2018-08-12T22:12:04.216Z,40.36
2018-08-12T22:14:31.749Z,40.62
2018-08-12T22:16:59.275Z,41.29
2018-08-12T22:19:27.202Z,40.47
2018-08-12T22:21:54.738Z,40.47
2018-08-12T22:24:22.346Z,40.97
2018-08-12T22:26:49.898Z,41.17
2018-08-12T22:29:17.468Z,39.59
2018-08-12T22:31:45.070Z,40.15
2018-08-12T22:34:12.626Z,40.01
2018-08-12T22:36:40.187Z,40.66
2018-08-12T22:39:08.024Z,40.91
2018-08-12T22:41:35.565Z,41.40
2018-08-12T22:44:03.221Z,41.44
2018-08-12T22:46:30.796Z,41.17
2018-08-12T22:48:58.302Z,41.36
2018-08-12T22:51:26.027Z,42.20
2018-08-12T22:53:53.638Z,42.05
2018-08-12T22:56:21.232Z,42.12
2018-08-12T22:58:48.813Z,42.84
2018-08-12T23:01:16.426Z,42.45
2018-08-12T23:03:43.970Z,42.36
2018-08-12T23:06:11.486Z,42.41
2018-08-12T23:08:39.200Z,42.44
2018-08-12T23:11:06.782Z,42.44
2018-08-12T23:13:34.328Z,42.33
2018-08-12T23:16:07.594Z,42.51
2018-08-12T23:18:35.125Z,42.46
2018-08-12T23:21:02.722Z,42.08
2018-08-12T23:23:30.282Z,43.22
2018-08-12T23:25:57.823Z,43.36
2018-08-12T23:28:25.358Z,43.87
2018-08-12T23:30:53.227Z,44.33
2018-08-12T23:33:20.763Z,43.89
2018-08-12T23:35:48.447Z,44.38
2018-08-12T23:38:16.031Z,44.34
2018-08-12T23:40:43.642Z,44.30
2018-08-12T23:43:11.199Z,44.24
2018-08-12T23:45:39.041Z,44.26
2018-08-12T23:48:06.590Z,44.38
2018-08-12T23:50:34.103Z,44.85
2018-08-12T23:53:01.651Z,45.01
2018-08-12T23:55:29.186Z,44.92
2018-08-12T23:57:56.768Z,44.92
